Airfield :
LOGIN :

Register | Disclaimer

   EN    FR    IT 

 










Legend :    VFR   Marginal VFR   IFR   Intensive IFR   Very Intensive IFR
Visi :
Ceiling :
>= 8 km
>= 3000ft
5 to 8 km
1000 to 3000 ft
1500m to 5 km
500 to 1000 ft
800 to 1500m
200 to 500 ft
< 800m
< 200 ft
Symbols :   Thunderstorms  Fog  Heavy snow  Heavy precipitations  Wind > 20 kt
SIGMETs :     Misc.  Thunderstorms  Icing  Turbulence  Mountain Waves  Volcanic Ashes







- Airport Elevation : 28 ft
- IATA code : SOZ
- Download approach charts


LFKS - Solenzara

CURRENT METAR :
  • 211100Z AUTO 34010KT 300V360 9999 SCT040 BKN046 BKN056 08/03 Q1004

EXPIRED METARs :
  • 211030Z AUTO 34011KT 300V360 9999 FEW041/// BKN086/// BKN100/// ///TCU 08/04 Q1004
  • 211000Z AUTO 33011KT 290V360 9999 -RA FEW041/// SCT058/// BKN098/// ///TCU 07/03 Q1004
  • 201500Z AUTO 02010KT 9999 OVC040 09/02 Q1005
  • 210930Z AUTO 34011KT 9999 FEW030/// SCT038/// BKN062/// ///TCU 07/04 Q1004
  • 210900Z AUTO 34010KT 9999 BKN033/// BKN048/// BKN070/// ///TCU 06/05 Q1004
  • 210830Z AUTO 32008KT 290V350 6000 -RA SCT021/// SCT026/// OVC033/// ///CB 05/05 Q1004

TAF TAF LFKS
Valid from the 20 at 15:00 until the 21 at 15:00 UTC


201400Z 2015/2115 04005KT 9999 BKN030
TEMPO 2112/2115 04010G20KT SCT030TCU BKN040
No reported NOTAMs for that airfield.
1 SIGMET reported for the Marseille FIR (LFMM) :
 
Severe turbulence
LFMM SIGMET 2 VALID 210800/211100 LFPW
LFMM MARSEILLE FIR/UIR SEV TURB FCST WI N4300 E00500 - N4245 E00345 - N4445 E00330 - N4430 E00500 - N4300 E00500 SFC/FL050 STNR WKN=



MET'MAP, your aeronautical weather chart ! - Copyright ORBIFLY December 2007 - Disclaimer

ORBIFLY MET'MAP TEAM :

Programming & Development : Alexandra Zaïnal
Concept & Development : Baudouin d'Aumeries
Co-Development & Prog : Marc-Olivier Méhu
Technical & hardware support : Manuel Goepfert

Contact : metmap@orbifly.com




SOURCES & CREDITS :

   NOAA